sensor_id;sensor_type;location;lat;lon;timestamp;temperature;humidity
23073;DHT22;67971;51.046;3.732;2023-04-07T00:00:52;11.20;99.90
23073;DHT22;67971;51.046;3.732;2023-04-07T00:03:18;11.20;99.90
23073;DHT22;67971;51.046;3.732;2023-04-07T00:05:44;11.20;99.90
23073;DHT22;67971;51.046;3.732;2023-04-07T00:08:09;11.20;99.90
23073;DHT22;67971;51.046;3.732;2023-04-07T00:10:35;11.10;99.90
23073;DHT22;67971;51.046;3.732;2023-04-07T00:13:01;11.20;99.90
23073;DHT22;67971;51.046;3.732;2023-04-07T00:15:27;11.20;99.90
23073;DHT22;67971;51.046;3.732;2023-04-07T00:17:53;11.10;99.90
23073;DHT22;67971;51.046;3.732;2023-04-07T00:20:18;11.20;99.90
23073;DHT22;67971;51.046;3.732;2023-04-07T00:22:45;11.10;99.90
23073;DHT22;67971;51.046;3.732;2023-04-07T00:25:10;11.10;99.90
23073;DHT22;67971;51.046;3.732;2023-04-07T00:27:36;11.10;99.90
23073;DHT22;67971;51.046;3.732;2023-04-07T00:30:02;11.20;99.90
23073;DHT22;67971;51.046;3.732;2023-04-07T00:32:28;11.30;99.90
23073;DHT22;67971;51.046;3.732;2023-04-07T00:34:54;11.20;99.90
23073;DHT22;67971;51.046;3.732;2023-04-07T00:37:20;11.30;99.90
23073;DHT22;67971;51.046;3.732;2023-04-07T00:39:46;11.30;99.90
23073;DHT22;67971;51.046;3.732;2023-04-07T00:42:11;11.30;99.90
23073;DHT22;67971;51.046;3.732;2023-04-07T00:44:37;11.30;99.90
23073;DHT22;67971;51.046;3.732;2023-04-07T00:47:03;11.30;99.90
23073;DHT22;67971;51.046;3.732;2023-04-07T00:49:28;11.30;99.90
23073;DHT22;67971;51.046;3.732;2023-04-07T00:51:56;11.30;99.90
23073;DHT22;67971;51.046;3.732;2023-04-07T00:54:25;11.30;99.90
23073;DHT22;67971;51.046;3.732;2023-04-07T00:56:54;11.40;99.90
23073;DHT22;67971;51.046;3.732;2023-04-07T00:59:20;11.40;99.90
23073;DHT22;67971;51.046;3.732;2023-04-07T01:04:38;11.30;99.90
23073;DHT22;67971;51.046;3.732;2023-04-07T01:07:25;11.40;99.90
23073;DHT22;67971;51.046;3.732;2023-04-07T01:10:02;11.30;99.90
23073;DHT22;67971;51.046;3.732;2023-04-07T01:15:09;11.20;99.90
23073;DHT22;67971;51.046;3.732;2023-04-07T01:17:41;11.30;99.90
23073;DHT22;67971;51.046;3.732;2023-04-07T01:20:11;11.30;99.90
23073;DHT22;67971;51.046;3.732;2023-04-07T01:22:43;11.20;99.90
23073;DHT22;67971;51.046;3.732;2023-04-07T01:25:46;11.30;99.90
23073;DHT22;67971;51.046;3.732;2023-04-07T01:30:44;11.30;99.90
23073;DHT22;67971;51.046;3.732;2023-04-07T01:33:11;11.30;99.90
23073;DHT22;67971;51.046;3.732;2023-04-07T01:35:38;11.10;99.90
23073;DHT22;67971;51.046;3.732;2023-04-07T01:38:04;11.20;99.90
23073;DHT22;67971;51.046;3.732;2023-04-07T01:40:33;11.20;99.90
23073;DHT22;67971;51.046;3.732;2023-04-07T01:43:00;11.20;99.90
23073;DHT22;67971;51.046;3.732;2023-04-07T01:45:27;11.30;99.90
23073;DHT22;67971;51.046;3.732;2023-04-07T01:47:54;11.30;99.90
23073;DHT22;67971;51.046;3.732;2023-04-07T01:50:20;11.30;99.90
23073;DHT22;67971;51.046;3.732;2023-04-07T01:52:46;11.30;99.90
23073;DHT22;67971;51.046;3.732;2023-04-07T01:55:12;11.10;99.90
23073;DHT22;67971;51.046;3.732;2023-04-07T01:57:38;11.10;99.90
23073;DHT22;67971;51.046;3.732;2023-04-07T02:00:05;11.10;99.90
23073;DHT22;67971;51.046;3.732;2023-04-07T02:02:34;11.10;99.90
23073;DHT22;67971;51.046;3.732;2023-04-07T02:05:04;11.20;99.90
23073;DHT22;67971;51.046;3.732;2023-04-07T02:07:51;11.10;99.90
23073;DHT22;67971;51.046;3.732;2023-04-07T02:10:20;11.10;99.90
23073;DHT22;67971;51.046;3.732;2023-04-07T02:12:47;11.00;99.90
23073;DHT22;67971;51.046;3.732;2023-04-07T02:15:14;11.10;99.90
23073;DHT22;67971;51.046;3.732;2023-04-07T02:17:43;11.10;99.90
23073;DHT22;67971;51.046;3.732;2023-04-07T02:20:11;11.00;99.90
23073;DHT22;67971;51.046;3.732;2023-04-07T02:22:38;10.90;99.90
23073;DHT22;67971;51.046;3.732;2023-04-07T02:25:24;10.90;99.90
23073;DHT22;67971;51.046;3.732;2023-04-07T02:27:50;11.00;99.90
23073;DHT22;67971;51.046;3.732;2023-04-07T02:30:16;11.00;99.90
23073;DHT22;67971;51.046;3.732;2023-04-07T02:32:42;10.90;99.90
23073;DHT22;67971;51.046;3.732;2023-04-07T02:35:09;10.80;99.90
23073;DHT22;67971;51.046;3.732;2023-04-07T02:37:35;10.80;99.90
23073;DHT22;67971;51.046;3.732;2023-04-07T02:40:01;10.70;99.90
23073;DHT22;67971;51.046;3.732;2023-04-07T02:42:28;10.60;99.90
23073;DHT22;67971;51.046;3.732;2023-04-07T02:44:53;10.40;99.90
23073;DHT22;67971;51.046;3.732;2023-04-07T02:47:19;10.40;99.90
23073;DHT22;67971;51.046;3.732;2023-04-07T02:49:44;10.40;99.90
23073;DHT22;67971;51.046;3.732;2023-04-07T02:52:11;10.30;99.90
23073;DHT22;67971;51.046;3.732;2023-04-07T02:54:36;10.30;99.90
23073;DHT22;67971;51.046;3.732;2023-04-07T02:57:02;10.30;99.90
23073;DHT22;67971;51.046;3.732;2023-04-07T02:59:28;10.20;99.90
23073;DHT22;67971;51.046;3.732;2023-04-07T03:01:53;10.30;99.90
23073;DHT22;67971;51.046;3.732;2023-04-07T03:04:20;10.40;99.90
23073;DHT22;67971;51.046;3.732;2023-04-07T03:06:46;10.20;99.90
23073;DHT22;67971;51.046;3.732;2023-04-07T03:09:12;10.10;99.90
23073;DHT22;67971;51.046;3.732;2023-04-07T03:11:37;10.20;99.90
23073;DHT22;67971;51.046;3.732;2023-04-07T03:14:03;10.20;99.90
23073;DHT22;67971;51.046;3.732;2023-04-07T03:16:29;10.30;99.90
23073;DHT22;67971;51.046;3.732;2023-04-07T03:18:54;10.30;99.90
23073;DHT22;67971;51.046;3.732;2023-04-07T03:21:20;10.30;99.90
23073;DHT22;67971;51.046;3.732;2023-04-07T03:23:46;10.50;99.90
23073;DHT22;67971;51.046;3.732;2023-04-07T03:26:12;10.50;99.90
23073;DHT22;67971;51.046;3.732;2023-04-07T03:28:37;10.60;99.90
23073;DHT22;67971;51.046;3.732;2023-04-07T03:31:03;10.60;99.90
23073;DHT22;67971;51.046;3.732;2023-04-07T03:33:29;10.60;99.90
23073;DHT22;67971;51.046;3.732;2023-04-07T03:35:54;10.50;99.90
23073;DHT22;67971;51.046;3.732;2023-04-07T03:38:20;10.50;99.90
23073;DHT22;67971;51.046;3.732;2023-04-07T03:40:46;10.40;99.90
23073;DHT22;67971;51.046;3.732;2023-04-07T03:43:12;10.40;99.90
23073;DHT22;67971;51.046;3.732;2023-04-07T03:45:43;10.40;99.90
23073;DHT22;67971;51.046;3.732;2023-04-07T03:48:08;10.40;99.90
23073;DHT22;67971;51.046;3.732;2023-04-07T03:50:38;10.40;99.90
23073;DHT22;67971;51.046;3.732;2023-04-07T03:53:04;10.40;99.90
23073;DHT22;67971;51.046;3.732;2023-04-07T03:55:30;10.40;99.90
23073;DHT22;67971;51.046;3.732;2023-04-07T03:57:56;10.40;99.90
23073;DHT22;67971;51.046;3.732;2023-04-07T04:00:22;10.40;99.90
23073;DHT22;67971;51.046;3.732;2023-04-07T04:02:48;10.30;99.90
23073;DHT22;67971;51.046;3.732;2023-04-07T04:05:13;10.40;99.90
23073;DHT22;67971;51.046;3.732;2023-04-07T04:07:39;10.40;99.90
23073;DHT22;67971;51.046;3.732;2023-04-07T04:10:06;10.40;99.90
23073;DHT22;67971;51.046;3.732;2023-04-07T04:12:32;10.30;99.90
23073;DHT22;67971;51.046;3.732;2023-04-07T04:14:57;10.20;99.90
23073;DHT22;67971;51.046;3.732;2023-04-07T04:17:23;10.10;99.90
23073;DHT22;67971;51.046;3.732;2023-04-07T04:19:49;10.20;99.90
23073;DHT22;67971;51.046;3.732;2023-04-07T04:22:16;10.00;99.90
23073;DHT22;67971;51.046;3.732;2023-04-07T04:24:41;9.90;99.90
23073;DHT22;67971;51.046;3.732;2023-04-07T04:27:07;10.00;99.90
23073;DHT22;67971;51.046;3.732;2023-04-07T04:29:33;9.90;99.90
23073;DHT22;67971;51.046;3.732;2023-04-07T04:31:58;9.90;99.90
23073;DHT22;67971;51.046;3.732;2023-04-07T04:34:24;9.80;99.90
23073;DHT22;67971;51.046;3.732;2023-04-07T04:36:50;9.70;99.90
23073;DHT22;67971;51.046;3.732;2023-04-07T04:39:16;9.70;99.90
23073;DHT22;67971;51.046;3.732;2023-04-07T04:41:42;9.70;99.90
23073;DHT22;67971;51.046;3.732;2023-04-07T04:44:08;9.70;99.90
23073;DHT22;67971;51.046;3.732;2023-04-07T04:46:34;9.70;99.90
23073;DHT22;67971;51.046;3.732;2023-04-07T04:48:59;9.60;99.90
23073;DHT22;67971;51.046;3.732;2023-04-07T04:51:28;9.50;99.90
23073;DHT22;67971;51.046;3.732;2023-04-07T04:53:54;9.60;99.90
23073;DHT22;67971;51.046;3.732;2023-04-07T04:56:20;9.70;99.90
23073;DHT22;67971;51.046;3.732;2023-04-07T04:58:46;9.70;99.90
23073;DHT22;67971;51.046;3.732;2023-04-07T05:01:12;9.80;99.90
23073;DHT22;67971;51.046;3.732;2023-04-07T05:03:38;9.70;99.90
23073;DHT22;67971;51.046;3.732;2023-04-07T05:06:04;9.70;99.90
23073;DHT22;67971;51.046;3.732;2023-04-07T05:08:30;9.70;99.90
23073;DHT22;67971;51.046;3.732;2023-04-07T05:10:56;9.70;99.90
23073;DHT22;67971;51.046;3.732;2023-04-07T05:13:21;9.60;99.90
23073;DHT22;67971;51.046;3.732;2023-04-07T05:15:47;9.60;99.90
23073;DHT22;67971;51.046;3.732;2023-04-07T05:18:13;9.70;99.90
23073;DHT22;67971;51.046;3.732;2023-04-07T05:20:39;9.60;99.90
23073;DHT22;67971;51.046;3.732;2023-04-07T05:23:04;9.60;99.90
23073;DHT22;67971;51.046;3.732;2023-04-07T05:25:31;9.60;99.90
23073;DHT22;67971;51.046;3.732;2023-04-07T05:27:58;9.50;99.90
23073;DHT22;67971;51.046;3.732;2023-04-07T05:30:26;9.60;99.90
23073;DHT22;67971;51.046;3.732;2023-04-07T05:32:52;9.70;99.90
23073;DHT22;67971;51.046;3.732;2023-04-07T05:35:18;9.70;99.90
23073;DHT22;67971;51.046;3.732;2023-04-07T05:37:44;9.70;99.90
23073;DHT22;67971;51.046;3.732;2023-04-07T05:40:10;9.80;99.90
23073;DHT22;67971;51.046;3.732;2023-04-07T05:42:36;9.80;99.90
23073;DHT22;67971;51.046;3.732;2023-04-07T05:45:03;9.90;99.90
23073;DHT22;67971;51.046;3.732;2023-04-07T05:47:28;10.00;99.90
23073;DHT22;67971;51.046;3.732;2023-04-07T05:49:54;10.00;99.90
23073;DHT22;67971;51.046;3.732;2023-04-07T05:52:20;10.00;99.90
23073;DHT22;67971;51.046;3.732;2023-04-07T05:54:46;10.10;99.90
23073;DHT22;67971;51.046;3.732;2023-04-07T05:57:12;10.20;99.90
23073;DHT22;67971;51.046;3.732;2023-04-07T05:59:38;10.40;99.90
23073;DHT22;67971;51.046;3.732;2023-04-07T06:02:03;10.50;99.90
23073;DHT22;67971;51.046;3.732;2023-04-07T06:04:30;10.50;99.90
23073;DHT22;67971;51.046;3.732;2023-04-07T06:06:57;10.50;99.90
23073;DHT22;67971;51.046;3.732;2023-04-07T06:09:23;10.40;99.90
23073;DHT22;67971;51.046;3.732;2023-04-07T06:11:49;10.50;99.90
23073;DHT22;67971;51.046;3.732;2023-04-07T06:14:16;10.50;99.90
23073;DHT22;67971;51.046;3.732;2023-04-07T06:16:42;10.50;99.90
23073;DHT22;67971;51.046;3.732;2023-04-07T06:19:08;10.60;99.90
23073;DHT22;67971;51.046;3.732;2023-04-07T06:21:33;10.50;99.90
23073;DHT22;67971;51.046;3.732;2023-04-07T06:24:00;10.70;99.90
23073;DHT22;67971;51.046;3.732;2023-04-07T06:26:26;10.90;99.90
23073;DHT22;67971;51.046;3.732;2023-04-07T06:28:52;11.10;99.90
23073;DHT22;67971;51.046;3.732;2023-04-07T06:31:23;11.10;99.90
23073;DHT22;67971;51.046;3.732;2023-04-07T06:33:51;11.30;99.90
23073;DHT22;67971;51.046;3.732;2023-04-07T06:36:17;11.40;99.90
23073;DHT22;67971;51.046;3.732;2023-04-07T06:38:43;11.80;99.90
23073;DHT22;67971;51.046;3.732;2023-04-07T06:41:09;12.40;99.90
23073;DHT22;67971;51.046;3.732;2023-04-07T06:43:50;12.80;99.90
23073;DHT22;67971;51.046;3.732;2023-04-07T06:46:16;12.80;99.90
23073;DHT22;67971;51.046;3.732;2023-04-07T06:48:42;12.90;99.90
23073;DHT22;67971;51.046;3.732;2023-04-07T06:51:08;12.80;99.90
23073;DHT22;67971;51.046;3.732;2023-04-07T06:53:34;12.70;99.90
23073;DHT22;67971;51.046;3.732;2023-04-07T06:58:29;12.50;99.90
23073;DHT22;67971;51.046;3.732;2023-04-07T07:00:55;12.10;99.90
23073;DHT22;67971;51.046;3.732;2023-04-07T07:03:21;11.80;99.90
23073;DHT22;67971;51.046;3.732;2023-04-07T07:05:47;11.50;99.90
23073;DHT22;67971;51.046;3.732;2023-04-07T07:08:12;11.70;99.90
23073;DHT22;67971;51.046;3.732;2023-04-07T07:10:38;11.70;99.90
23073;DHT22;67971;51.046;3.732;2023-04-07T07:13:03;11.80;99.90
23073;DHT22;67971;51.046;3.732;2023-04-07T07:15:29;11.70;99.90
23073;DHT22;67971;51.046;3.732;2023-04-07T07:17:55;11.80;99.90
23073;DHT22;67971;51.046;3.732;2023-04-07T07:20:20;11.80;99.90
23073;DHT22;67971;51.046;3.732;2023-04-07T07:22:48;11.60;99.90
23073;DHT22;67971;51.046;3.732;2023-04-07T07:25:13;11.60;99.90
23073;DHT22;67971;51.046;3.732;2023-04-07T07:27:39;11.70;99.90
23073;DHT22;67971;51.046;3.732;2023-04-07T07:30:05;11.80;99.90
23073;DHT22;67971;51.046;3.732;2023-04-07T07:32:31;11.90;99.90
23073;DHT22;67971;51.046;3.732;2023-04-07T07:34:57;12.10;99.90
23073;DHT22;67971;51.046;3.732;2023-04-07T07:37:23;12.00;99.90
23073;DHT22;67971;51.046;3.732;2023-04-07T07:39:49;12.00;99.90
23073;DHT22;67971;51.046;3.732;2023-04-07T07:42:15;12.10;99.90
23073;DHT22;67971;51.046;3.732;2023-04-07T07:44:40;12.20;99.90
23073;DHT22;67971;51.046;3.732;2023-04-07T07:47:06;12.40;99.90
23073;DHT22;67971;51.046;3.732;2023-04-07T07:49:32;12.70;99.90
23073;DHT22;67971;51.046;3.732;2023-04-07T07:52:00;12.80;99.90
23073;DHT22;67971;51.046;3.732;2023-04-07T07:54:26;12.80;99.90
23073;DHT22;67971;51.046;3.732;2023-04-07T07:56:52;12.90;99.90
23073;DHT22;67971;51.046;3.732;2023-04-07T07:59:18;13.60;99.90
23073;DHT22;67971;51.046;3.732;2023-04-07T08:01:43;15.30;99.90
23073;DHT22;67971;51.046;3.732;2023-04-07T08:04:09;17.10;99.90
23073;DHT22;67971;51.046;3.732;2023-04-07T08:06:35;17.70;99.90
23073;DHT22;67971;51.046;3.732;2023-04-07T08:09:02;17.90;99.90
23073;DHT22;67971;51.046;3.732;2023-04-07T08:11:27;17.90;99.90
23073;DHT22;67971;51.046;3.732;2023-04-07T08:13:56;17.80;99.90
23073;DHT22;67971;51.046;3.732;2023-04-07T08:16:22;18.90;99.90
23073;DHT22;67971;51.046;3.732;2023-04-07T08:18:48;20.10;99.90
23073;DHT22;67971;51.046;3.732;2023-04-07T08:21:14;20.10;99.90
23073;DHT22;67971;51.046;3.732;2023-04-07T08:23:40;19.60;99.90
23073;DHT22;67971;51.046;3.732;2023-04-07T08:26:06;18.60;99.90
23073;DHT22;67971;51.046;3.732;2023-04-07T08:28:31;17.80;99.90
23073;DHT22;67971;51.046;3.732;2023-04-07T08:30:57;17.00;99.90
23073;DHT22;67971;51.046;3.732;2023-04-07T08:33:23;16.50;99.90
23073;DHT22;67971;51.046;3.732;2023-04-07T08:35:50;15.60;99.90
23073;DHT22;67971;51.046;3.732;2023-04-07T08:38:16;15.00;99.90
23073;DHT22;67971;51.046;3.732;2023-04-07T08:40:42;14.60;99.90
23073;DHT22;67971;51.046;3.732;2023-04-07T08:43:08;14.50;99.90
23073;DHT22;67971;51.046;3.732;2023-04-07T08:45:39;14.50;99.90
23073;DHT22;67971;51.046;3.732;2023-04-07T08:48:17;14.30;99.90
23073;DHT22;67971;51.046;3.732;2023-04-07T08:50:48;14.00;99.90
23073;DHT22;67971;51.046;3.732;2023-04-07T08:53:28;13.80;99.90
23073;DHT22;67971;51.046;3.732;2023-04-07T08:55:57;13.80;99.90
23073;DHT22;67971;51.046;3.732;2023-04-07T08:58:23;13.80;99.90
23073;DHT22;67971;51.046;3.732;2023-04-07T09:00:49;14.00;99.90
23073;DHT22;67971;51.046;3.732;2023-04-07T09:03:16;14.10;99.90
23073;DHT22;67971;51.046;3.732;2023-04-07T09:05:44;14.30;99.90
23073;DHT22;67971;51.046;3.732;2023-04-07T09:08:11;14.20;99.90
23073;DHT22;67971;51.046;3.732;2023-04-07T09:10:37;14.10;99.90
23073;DHT22;67971;51.046;3.732;2023-04-07T09:13:02;14.20;99.90
23073;DHT22;67971;51.046;3.732;2023-04-07T09:15:31;14.50;99.90
23073;DHT22;67971;51.046;3.732;2023-04-07T09:17:57;14.40;99.90
23073;DHT22;67971;51.046;3.732;2023-04-07T09:20:23;14.70;99.90
23073;DHT22;67971;51.046;3.732;2023-04-07T09:22:49;14.90;99.90
23073;DHT22;67971;51.046;3.732;2023-04-07T09:25:20;15.10;99.90
23073;DHT22;67971;51.046;3.732;2023-04-07T09:27:59;15.40;99.90
23073;DHT22;67971;51.046;3.732;2023-04-07T09:30:26;15.60;99.90
23073;DHT22;67971;51.046;3.732;2023-04-07T09:32:52;15.20;99.90
23073;DHT22;67971;51.046;3.732;2023-04-07T09:35:18;15.00;99.90
23073;DHT22;67971;51.046;3.732;2023-04-07T09:38:08;14.40;99.90
23073;DHT22;67971;51.046;3.732;2023-04-07T09:40:35;14.10;99.90
23073;DHT22;67971;51.046;3.732;2023-04-07T09:43:02;14.00;99.90
23073;DHT22;67971;51.046;3.732;2023-04-07T09:45:29;14.10;99.90
23073;DHT22;67971;51.046;3.732;2023-04-07T09:47:56;14.40;99.90
23073;DHT22;67971;51.046;3.732;2023-04-07T09:50:38;14.80;99.90
23073;DHT22;67971;51.046;3.732;2023-04-07T09:53:04;15.40;99.90
23073;DHT22;67971;51.046;3.732;2023-04-07T09:55:30;15.40;99.90
23073;DHT22;67971;51.046;3.732;2023-04-07T09:57:56;14.60;99.90
23073;DHT22;67971;51.046;3.732;2023-04-07T10:00:22;14.40;99.90
23073;DHT22;67971;51.046;3.732;2023-04-07T10:02:49;14.10;99.90
23073;DHT22;67971;51.046;3.732;2023-04-07T10:05:16;13.60;99.90
23073;DHT22;67971;51.046;3.732;2023-04-07T10:07:42;13.40;99.90
23073;DHT22;67971;51.046;3.732;2023-04-07T10:10:08;13.30;99.90
23073;DHT22;67971;51.046;3.732;2023-04-07T10:12:36;13.10;99.90
23073;DHT22;67971;51.046;3.732;2023-04-07T10:15:03;13.10;99.90
23073;DHT22;67971;51.046;3.732;2023-04-07T10:17:30;13.20;99.90
23073;DHT22;67971;51.046;3.732;2023-04-07T10:20:01;13.30;99.90
23073;DHT22;67971;51.046;3.732;2023-04-07T10:22:29;13.10;99.90
23073;DHT22;67971;51.046;3.732;2023-04-07T10:24:59;13.20;99.90
23073;DHT22;67971;51.046;3.732;2023-04-07T10:27:35;13.20;99.90
23073;DHT22;67971;51.046;3.732;2023-04-07T10:30:04;13.40;99.90
23073;DHT22;67971;51.046;3.732;2023-04-07T10:32:31;13.70;99.90
23073;DHT22;67971;51.046;3.732;2023-04-07T10:34:58;13.80;99.90
23073;DHT22;67971;51.046;3.732;2023-04-07T10:37:24;14.10;99.90
23073;DHT22;67971;51.046;3.732;2023-04-07T10:42:46;15.00;99.90
23073;DHT22;67971;51.046;3.732;2023-04-07T10:45:15;15.00;99.90
23073;DHT22;67971;51.046;3.732;2023-04-07T10:48:08;15.00;99.90
23073;DHT22;67971;51.046;3.732;2023-04-07T10:50:34;15.20;99.90
23073;DHT22;67971;51.046;3.732;2023-04-07T10:53:18;15.30;99.90
23073;DHT22;67971;51.046;3.732;2023-04-07T10:55:45;15.50;99.90
23073;DHT22;67971;51.046;3.732;2023-04-07T10:58:15;15.30;99.90
23073;DHT22;67971;51.046;3.732;2023-04-07T11:00:42;15.10;99.90
23073;DHT22;67971;51.046;3.732;2023-04-07T11:03:11;15.00;99.90
23073;DHT22;67971;51.046;3.732;2023-04-07T11:05:39;14.80;99.90
23073;DHT22;67971;51.046;3.732;2023-04-07T11:08:05;14.70;99.90
23073;DHT22;67971;51.046;3.732;2023-04-07T11:10:35;14.90;99.90
23073;DHT22;67971;51.046;3.732;2023-04-07T11:13:03;15.10;99.90
23073;DHT22;67971;51.046;3.732;2023-04-07T11:15:29;15.10;99.90
23073;DHT22;67971;51.046;3.732;2023-04-07T11:20:44;15.30;99.90
23073;DHT22;67971;51.046;3.732;2023-04-07T11:23:12;15.40;99.90
23073;DHT22;67971;51.046;3.732;2023-04-07T11:25:38;15.60;99.90
23073;DHT22;67971;51.046;3.732;2023-04-07T11:28:08;15.80;99.90
23073;DHT22;67971;51.046;3.732;2023-04-07T11:30:34;15.80;99.90
23073;DHT22;67971;51.046;3.732;2023-04-07T11:33:00;15.90;99.90
23073;DHT22;67971;51.046;3.732;2023-04-07T11:35:26;16.30;99.90
23073;DHT22;67971;51.046;3.732;2023-04-07T11:37:59;16.30;99.90
23073;DHT22;67971;51.046;3.732;2023-04-07T11:40:33;16.30;99.90
23073;DHT22;67971;51.046;3.732;2023-04-07T11:42:59;16.20;99.90
23073;DHT22;67971;51.046;3.732;2023-04-07T11:45:26;16.30;99.90
23073;DHT22;67971;51.046;3.732;2023-04-07T11:47:51;16.40;99.90
23073;DHT22;67971;51.046;3.732;2023-04-07T11:50:40;16.40;99.90
23073;DHT22;67971;51.046;3.732;2023-04-07T11:53:05;15.70;99.90
23073;DHT22;67971;51.046;3.732;2023-04-07T11:55:31;15.40;99.90
23073;DHT22;67971;51.046;3.732;2023-04-07T11:58:05;15.20;99.90
23073;DHT22;67971;51.046;3.732;2023-04-07T12:00:34;15.00;99.90
23073;DHT22;67971;51.046;3.732;2023-04-07T12:03:09;14.70;99.90
23073;DHT22;67971;51.046;3.732;2023-04-07T12:05:43;14.60;99.90
23073;DHT22;67971;51.046;3.732;2023-04-07T12:08:09;14.60;99.90
23073;DHT22;67971;51.046;3.732;2023-04-07T12:10:35;14.40;99.90
23073;DHT22;67971;51.046;3.732;2023-04-07T12:13:01;14.30;99.90
23073;DHT22;67971;51.046;3.732;2023-04-07T12:15:26;14.30;99.90
23073;DHT22;67971;51.046;3.732;2023-04-07T12:17:52;14.60;99.90
23073;DHT22;67971;51.046;3.732;2023-04-07T12:20:19;14.90;99.90
23073;DHT22;67971;51.046;3.732;2023-04-07T12:22:45;15.20;99.90
23073;DHT22;67971;51.046;3.732;2023-04-07T12:25:11;15.10;99.90
23073;DHT22;67971;51.046;3.732;2023-04-07T12:27:37;15.30;99.90
23073;DHT22;67971;51.046;3.732;2023-04-07T12:30:03;15.70;99.90
23073;DHT22;67971;51.046;3.732;2023-04-07T12:32:28;16.00;99.90
23073;DHT22;67971;51.046;3.732;2023-04-07T12:34:54;16.00;99.90
23073;DHT22;67971;51.046;3.732;2023-04-07T12:37:20;15.90;99.90
23073;DHT22;67971;51.046;3.732;2023-04-07T12:39:45;15.70;99.90
23073;DHT22;67971;51.046;3.732;2023-04-07T12:42:11;15.60;99.90
23073;DHT22;67971;51.046;3.732;2023-04-07T12:44:37;15.50;99.90
23073;DHT22;67971;51.046;3.732;2023-04-07T12:47:03;15.10;99.90
23073;DHT22;67971;51.046;3.732;2023-04-07T12:49:28;15.20;99.90
23073;DHT22;67971;51.046;3.732;2023-04-07T12:51:55;15.10;99.90
23073;DHT22;67971;51.046;3.732;2023-04-07T12:54:21;15.20;99.90
23073;DHT22;67971;51.046;3.732;2023-04-07T12:56:47;15.00;99.90
23073;DHT22;67971;51.046;3.732;2023-04-07T12:59:12;14.90;99.90
23073;DHT22;67971;51.046;3.732;2023-04-07T13:01:38;14.70;99.90
23073;DHT22;67971;51.046;3.732;2023-04-07T13:04:04;14.50;99.90
23073;DHT22;67971;51.046;3.732;2023-04-07T13:06:30;14.40;99.90
23073;DHT22;67971;51.046;3.732;2023-04-07T13:08:56;14.30;99.90
23073;DHT22;67971;51.046;3.732;2023-04-07T13:11:22;14.50;99.90
23073;DHT22;67971;51.046;3.732;2023-04-07T13:13:48;14.70;99.90
23073;DHT22;67971;51.046;3.732;2023-04-07T13:16:13;15.00;99.90
23073;DHT22;67971;51.046;3.732;2023-04-07T13:18:39;15.20;99.90
23073;DHT22;67971;51.046;3.732;2023-04-07T13:21:05;15.40;99.90
23073;DHT22;67971;51.046;3.732;2023-04-07T13:23:30;15.50;99.90
23073;DHT22;67971;51.046;3.732;2023-04-07T13:25:56;15.30;99.90
23073;DHT22;67971;51.046;3.732;2023-04-07T13:28:22;15.40;99.90
23073;DHT22;67971;51.046;3.732;2023-04-07T13:30:47;15.20;99.90
23073;DHT22;67971;51.046;3.732;2023-04-07T13:33:13;15.10;99.90
23073;DHT22;67971;51.046;3.732;2023-04-07T13:35:39;15.20;99.90
23073;DHT22;67971;51.046;3.732;2023-04-07T13:38:04;15.10;99.90
23073;DHT22;67971;51.046;3.732;2023-04-07T13:40:30;14.90;99.90
23073;DHT22;67971;51.046;3.732;2023-04-07T13:42:56;14.80;99.90
23073;DHT22;67971;51.046;3.732;2023-04-07T13:45:22;14.80;99.90
23073;DHT22;67971;51.046;3.732;2023-04-07T13:47:48;15.00;99.90
23073;DHT22;67971;51.046;3.732;2023-04-07T13:50:14;15.00;99.90
23073;DHT22;67971;51.046;3.732;2023-04-07T13:52:40;15.00;99.90
23073;DHT22;67971;51.046;3.732;2023-04-07T13:55:06;14.80;99.90
23073;DHT22;67971;51.046;3.732;2023-04-07T13:57:32;14.70;99.90
23073;DHT22;67971;51.046;3.732;2023-04-07T13:59:57;14.60;99.90
23073;DHT22;67971;51.046;3.732;2023-04-07T14:02:24;14.60;99.90
23073;DHT22;67971;51.046;3.732;2023-04-07T14:04:52;14.40;99.90
23073;DHT22;67971;51.046;3.732;2023-04-07T14:07:17;14.20;99.90
23073;DHT22;67971;51.046;3.732;2023-04-07T14:09:43;14.10;99.90
23073;DHT22;67971;51.046;3.732;2023-04-07T14:12:10;14.20;99.90
23073;DHT22;67971;51.046;3.732;2023-04-07T14:14:36;14.20;99.90
23073;DHT22;67971;51.046;3.732;2023-04-07T14:17:02;14.40;99.90
23073;DHT22;67971;51.046;3.732;2023-04-07T14:19:28;14.40;99.90
23073;DHT22;67971;51.046;3.732;2023-04-07T14:21:54;14.60;99.90
23073;DHT22;67971;51.046;3.732;2023-04-07T14:24:20;14.60;99.90
23073;DHT22;67971;51.046;3.732;2023-04-07T14:26:46;14.70;99.90
23073;DHT22;67971;51.046;3.732;2023-04-07T14:29:13;14.20;99.90
23073;DHT22;67971;51.046;3.732;2023-04-07T14:31:39;14.10;99.90
23073;DHT22;67971;51.046;3.732;2023-04-07T14:34:05;13.70;99.90
23073;DHT22;67971;51.046;3.732;2023-04-07T14:36:32;13.60;99.90
23073;DHT22;67971;51.046;3.732;2023-04-07T14:38:58;13.50;99.90
23073;DHT22;67971;51.046;3.732;2023-04-07T14:41:31;13.50;99.90
23073;DHT22;67971;51.046;3.732;2023-04-07T14:43:57;13.60;99.90
23073;DHT22;67971;51.046;3.732;2023-04-07T14:46:23;13.60;99.90
23073;DHT22;67971;51.046;3.732;2023-04-07T14:48:49;13.60;99.90
23073;DHT22;67971;51.046;3.732;2023-04-07T14:51:19;13.90;99.90
23073;DHT22;67971;51.046;3.732;2023-04-07T14:53:45;14.10;99.90
23073;DHT22;67971;51.046;3.732;2023-04-07T14:56:14;14.30;99.90
23073;DHT22;67971;51.046;3.732;2023-04-07T14:58:40;14.20;99.90
23073;DHT22;67971;51.046;3.732;2023-04-07T15:01:06;14.00;99.90
23073;DHT22;67971;51.046;3.732;2023-04-07T15:03:32;13.90;99.90
23073;DHT22;67971;51.046;3.732;2023-04-07T15:06:05;13.80;99.90
23073;DHT22;67971;51.046;3.732;2023-04-07T15:08:31;13.50;99.90
23073;DHT22;67971;51.046;3.732;2023-04-07T15:10:56;13.20;99.90
23073;DHT22;67971;51.046;3.732;2023-04-07T15:13:22;13.00;99.90
23073;DHT22;67971;51.046;3.732;2023-04-07T15:15:48;12.80;99.90
23073;DHT22;67971;51.046;3.732;2023-04-07T15:18:14;12.60;99.90
23073;DHT22;67971;51.046;3.732;2023-04-07T15:20:39;12.60;99.90
23073;DHT22;67971;51.046;3.732;2023-04-07T15:23:05;12.70;99.90
23073;DHT22;67971;51.046;3.732;2023-04-07T15:25:31;12.50;99.90
23073;DHT22;67971;51.046;3.732;2023-04-07T15:27:56;12.70;99.90
23073;DHT22;67971;51.046;3.732;2023-04-07T15:30:22;12.80;99.90
23073;DHT22;67971;51.046;3.732;2023-04-07T15:32:58;13.00;99.90
23073;DHT22;67971;51.046;3.732;2023-04-07T15:35:25;13.00;99.90
23073;DHT22;67971;51.046;3.732;2023-04-07T15:37:52;13.20;99.90
23073;DHT22;67971;51.046;3.732;2023-04-07T15:40:17;13.40;99.90
23073;DHT22;67971;51.046;3.732;2023-04-07T15:42:43;13.50;99.90
23073;DHT22;67971;51.046;3.732;2023-04-07T15:45:09;13.50;99.90
23073;DHT22;67971;51.046;3.732;2023-04-07T15:47:35;13.60;99.90